createdAt,value
2023-04-09T00:01:18.624Z,30.63
2023-04-09T00:03:47.013Z,29.48
2023-04-09T00:06:15.685Z,27.58
2023-04-09T00:08:43.839Z,30.17
2023-04-09T00:11:11.967Z,29.17
2023-04-09T00:13:41.738Z,27.38
2023-04-09T00:16:10.528Z,27.63
2023-04-09T00:18:38.682Z,29.20
2023-04-09T00:21:08.573Z,27.48
2023-04-09T00:23:37.128Z,26.92
2023-04-09T00:26:05.501Z,26.83
2023-04-09T00:28:33.829Z,25.73
2023-04-09T00:31:03.412Z,25.95
2023-04-09T00:33:33.718Z,26.70
2023-04-09T00:36:01.899Z,27.88
2023-04-09T00:38:30.485Z,27.90
2023-04-09T00:40:58.780Z,26.42
2023-04-09T00:43:27.029Z,26.58
2023-04-09T00:45:55.726Z,27.25
2023-04-09T00:48:25.997Z,28.70
2023-04-09T00:50:54.373Z,28.17
2023-04-09T00:53:26.416Z,28.95
2023-04-09T00:55:55.519Z,27.85
2023-04-09T00:58:23.976Z,27.55
2023-04-09T01:00:52.452Z,27.90
2023-04-09T01:03:20.952Z,31.25
2023-04-09T01:05:58.622Z,31.17
2023-04-09T01:08:39.269Z,30.50
2023-04-09T01:11:22.001Z,31.27
2023-04-09T01:14:00.263Z,33.63
2023-04-09T01:16:30.968Z,35.33
2023-04-09T01:19:03.964Z,32.90
2023-04-09T01:21:37.728Z,34.85
2023-04-09T01:24:22.155Z,35.05
2023-04-09T01:26:59.607Z,32.58
2023-04-09T01:29:33.408Z,33.42
2023-04-09T01:32:04.297Z,32.50
2023-04-09T01:34:33.511Z,32.65
2023-04-09T01:37:04.370Z,29.77
2023-04-09T01:39:33.559Z,32.05
2023-04-09T01:42:03.923Z,32.60
2023-04-09T01:44:34.439Z,33.15
2023-04-09T01:47:03.883Z,32.30
2023-04-09T01:49:33.127Z,33.90
2023-04-09T01:52:01.638Z,32.05
2023-04-09T01:54:29.939Z,32.75
2023-04-09T01:56:59.276Z,31.33
2023-04-09T01:59:27.984Z,30.55
2023-04-09T02:02:02.547Z,31.10
2023-04-09T02:04:36.636Z,30.80
2023-04-09T02:07:08.015Z,32.28
2023-04-09T02:09:41.103Z,32.33
2023-04-09T02:12:14.091Z,32.83
2023-04-09T02:14:44.153Z,30.80
2023-04-09T02:17:14.895Z,31.77
2023-04-09T02:19:44.666Z,30.60
2023-04-09T02:22:13.841Z,30.55
2023-04-09T02:24:42.286Z,30.13
2023-04-09T02:27:10.817Z,30.08
2023-04-09T02:29:41.179Z,30.58
2023-04-09T02:32:09.621Z,30.02
2023-04-09T02:34:39.208Z,30.45
2023-04-09T02:37:07.777Z,29.00
2023-04-09T02:39:36.055Z,31.05
2023-04-09T02:42:04.334Z,30.33
2023-04-09T02:44:33.063Z,29.50
2023-04-09T02:47:01.369Z,29.10
2023-04-09T02:49:29.964Z,28.38
2023-04-09T02:51:59.856Z,29.70
2023-04-09T02:54:28.203Z,30.17
2023-04-09T02:56:56.729Z,28.40
2023-04-09T02:59:25.051Z,30.00
2023-04-09T03:01:53.702Z,30.40
2023-04-09T03:04:22.432Z,30.83
2023-04-09T03:06:51.665Z,28.95
2023-04-09T03:09:21.413Z,28.75
2023-04-09T03:11:49.677Z,29.38
2023-04-09T03:14:17.887Z,27.58
2023-04-09T03:16:46.337Z,28.60
2023-04-09T03:19:14.498Z,28.73
2023-04-09T03:21:42.823Z,27.10
2023-04-09T03:24:11.087Z,27.85
2023-04-09T03:26:40.818Z,30.88
2023-04-09T03:29:09.189Z,31.13
2023-04-09T03:31:37.616Z,31.90
2023-04-09T03:34:06.209Z,32.35
2023-04-09T03:36:35.522Z,32.75
2023-04-09T03:39:03.804Z,33.45
2023-04-09T03:41:32.014Z,31.38
2023-04-09T03:44:01.813Z,31.98
2023-04-09T03:46:30.207Z,30.80
2023-04-09T03:48:58.509Z,30.50
2023-04-09T03:51:28.602Z,29.58
2023-04-09T03:53:57.868Z,30.75
2023-04-09T03:56:26.317Z,28.75
2023-04-09T03:58:54.813Z,29.35
2023-04-09T04:01:24.777Z,30.48
2023-04-09T04:03:53.175Z,31.80
2023-04-09T04:06:21.552Z,32.63
2023-04-09T04:11:18.384Z,28.10
2023-04-09T04:13:46.749Z,28.60
2023-04-09T04:16:15.117Z,30.77
2023-04-09T04:18:44.651Z,29.65
2023-04-09T04:21:15.170Z,30.60
2023-04-09T04:23:43.599Z,28.13
2023-04-09T04:26:12.791Z,29.45
2023-04-09T04:28:42.387Z,28.95
2023-04-09T04:31:11.451Z,28.17
2023-04-09T04:33:41.024Z,28.17
2023-04-09T04:36:12.593Z,31.50
2023-04-09T04:38:42.151Z,29.23
2023-04-09T04:41:12.163Z,27.95
2023-04-09T04:43:41.450Z,27.88
2023-04-09T04:46:09.967Z,27.58
2023-04-09T04:48:38.235Z,26.98
2023-04-09T04:51:06.710Z,27.15
2023-04-09T04:53:36.505Z,27.35
2023-04-09T04:56:05.348Z,27.55
2023-04-09T04:58:33.693Z,26.25
2023-04-09T05:01:02.170Z,27.45
2023-04-09T05:03:30.896Z,28.63
2023-04-09T05:05:59.237Z,26.45
2023-04-09T05:08:27.693Z,27.13
2023-04-09T05:10:57.562Z,29.25
2023-04-09T05:13:26.183Z,26.88
2023-04-09T05:15:54.768Z,26.73
2023-04-09T05:18:23.088Z,26.70
2023-04-09T05:20:51.552Z,26.25
2023-04-09T05:23:20.019Z,25.92
2023-04-09T05:25:50.788Z,24.98
2023-04-09T05:28:20.445Z,24.27
2023-04-09T05:30:48.996Z,26.30
2023-04-09T05:33:17.403Z,25.35
2023-04-09T05:35:46.003Z,25.63
2023-04-09T05:38:14.699Z,24.65
2023-04-09T05:40:45.069Z,27.05
2023-04-09T05:43:13.426Z,25.20
2023-04-09T05:45:43.392Z,25.17
2023-04-09T05:48:12.271Z,26.50
2023-04-09T05:50:53.506Z,24.65
2023-04-09T05:53:26.352Z,25.23
2023-04-09T05:55:54.738Z,25.17
2023-04-09T05:58:23.210Z,26.67
2023-04-09T06:00:53.722Z,24.42
2023-04-09T06:03:22.206Z,23.55
2023-04-09T06:05:50.548Z,24.27
2023-04-09T06:08:19.102Z,25.25
2023-04-09T06:10:47.355Z,24.58
2023-04-09T06:13:15.624Z,24.50
2023-04-09T06:15:44.388Z,24.75
2023-04-09T06:18:14.108Z,23.20
2023-04-09T06:20:43.603Z,23.67
2023-04-09T06:23:11.913Z,23.92
2023-04-09T06:25:40.142Z,22.48
2023-04-09T06:28:08.911Z,22.25
2023-04-09T06:30:38.003Z,20.73
2023-04-09T06:33:06.222Z,23.15
2023-04-09T06:35:35.819Z,22.77
2023-04-09T06:38:04.181Z,23.30
2023-04-09T06:40:32.339Z,24.05
2023-04-09T06:43:00.924Z,25.35
2023-04-09T06:45:29.536Z,25.65
2023-04-09T06:47:57.813Z,24.40
2023-04-09T06:50:26.097Z,24.45
2023-04-09T06:52:56.672Z,23.70
2023-04-09T06:55:26.832Z,22.63
2023-04-09T06:57:55.448Z,23.35
2023-04-09T07:00:24.055Z,22.23
2023-04-09T07:02:53.619Z,18.67
2023-04-09T07:05:22.892Z,19.70
2023-04-09T07:07:51.234Z,19.20
2023-04-09T07:10:21.199Z,20.30
2023-04-09T07:12:49.456Z,20.50
2023-04-09T07:15:21.379Z,20.15
2023-04-09T07:17:49.644Z,20.02
2023-04-09T07:20:18.095Z,19.88
2023-04-09T07:22:46.572Z,18.95
2023-04-09T07:25:15.880Z,20.20
2023-04-09T07:27:50.766Z,18.95
2023-04-09T07:30:19.006Z,18.73
2023-04-09T07:32:47.347Z,18.25
2023-04-09T07:35:15.874Z,17.15
2023-04-09T07:37:44.078Z,19.13
2023-04-09T07:40:13.218Z,19.40
2023-04-09T07:42:42.803Z,18.92
2023-04-09T07:45:12.964Z,19.38
2023-04-09T07:47:42.118Z,18.08
2023-04-09T07:50:11.410Z,18.98
2023-04-09T07:52:39.761Z,18.33
2023-04-09T07:55:08.648Z,19.77
2023-04-09T07:57:37.929Z,18.63
2023-04-09T08:00:07.546Z,18.85
2023-04-09T08:02:38.110Z,17.45
2023-04-09T08:05:07.916Z,17.88
2023-04-09T08:07:36.864Z,18.38
2023-04-09T08:10:05.908Z,18.70
2023-04-09T08:12:34.512Z,17.80
2023-04-09T08:15:04.097Z,17.30
2023-04-09T08:17:32.365Z,18.25
2023-04-09T08:20:02.189Z,17.20
2023-04-09T08:22:30.465Z,18.83
2023-04-09T08:25:00.250Z,18.00
2023-04-09T08:27:30.529Z,17.08
2023-04-09T08:29:58.893Z,17.25
2023-04-09T08:32:27.465Z,16.67
2023-04-09T08:34:56.272Z,16.30
2023-04-09T08:37:26.833Z,17.02
2023-04-09T08:39:55.331Z,17.02
2023-04-09T08:42:24.282Z,17.38
2023-04-09T08:44:53.118Z,16.30
2023-04-09T08:47:22.275Z,15.75
2023-04-09T08:49:50.609Z,16.67
2023-04-09T08:52:22.125Z,15.65
2023-04-09T08:54:53.014Z,17.17
2023-04-09T08:57:21.958Z,15.27
2023-04-09T08:59:53.515Z,15.77
2023-04-09T09:02:21.804Z,18.08
2023-04-09T09:04:53.536Z,18.95
2023-04-09T09:07:22.003Z,17.55
2023-04-09T09:09:56.287Z,16.52
2023-04-09T09:12:39.331Z,15.48
2023-04-09T09:15:26.292Z,15.35
2023-04-09T09:17:58.135Z,14.90
2023-04-09T09:20:27.851Z,15.43
2023-04-09T09:22:57.674Z,15.98
2023-04-09T09:25:27.595Z,12.82
2023-04-09T09:27:56.218Z,13.20
2023-04-09T09:30:25.874Z,13.27
2023-04-09T09:32:55.074Z,16.08
2023-04-09T09:35:23.974Z,16.67
2023-04-09T09:38:04.283Z,15.60
2023-04-09T09:40:34.178Z,14.38
2023-04-09T09:43:02.390Z,14.65
2023-04-09T09:45:31.448Z,15.38
2023-04-09T09:48:00.130Z,15.73
2023-04-09T09:50:32.560Z,15.15
2023-04-09T09:53:04.889Z,16.10
2023-04-09T09:55:39.418Z,15.98
2023-04-09T09:58:17.913Z,16.27
2023-04-09T10:00:48.444Z,13.63
2023-04-09T10:03:23.341Z,16.08
2023-04-09T10:05:53.520Z,14.77
2023-04-09T10:08:25.419Z,15.80
2023-04-09T10:10:55.411Z,15.27
2023-04-09T10:13:34.490Z,14.65
2023-04-09T10:16:03.296Z,16.17
2023-04-09T10:18:33.565Z,16.73
2023-04-09T10:21:10.327Z,15.60
2023-04-09T10:23:49.459Z,13.48
2023-04-09T10:26:20.258Z,15.65
2023-04-09T10:28:48.737Z,14.80
2023-04-09T10:31:17.166Z,14.80
2023-04-09T10:33:46.024Z,14.88
2023-04-09T10:36:15.492Z,18.55
2023-04-09T10:38:48.257Z,16.10
2023-04-09T10:41:24.356Z,17.52
2023-04-09T10:43:52.679Z,16.45
2023-04-09T10:46:28.746Z,18.92
2023-04-09T10:49:14.607Z,17.25
2023-04-09T10:51:46.870Z,17.02
2023-04-09T10:54:43.760Z,17.50
2023-04-09T10:57:15.091Z,17.25
2023-04-09T10:59:45.973Z,15.32
2023-04-09T11:03:14.788Z,15.95
2023-04-09T11:05:45.464Z,19.60
2023-04-09T11:08:15.520Z,15.48
2023-04-09T11:10:45.130Z,16.95
2023-04-09T11:13:16.126Z,16.38
2023-04-09T11:15:45.975Z,16.23
2023-04-09T11:18:21.815Z,15.50
2023-04-09T11:20:50.347Z,15.93
2023-04-09T11:23:19.831Z,17.02
2023-04-09T11:25:51.630Z,15.88
2023-04-09T11:28:22.172Z,16.02
2023-04-09T11:30:52.800Z,15.10
2023-04-09T11:33:21.453Z,16.13
2023-04-09T11:35:50.003Z,17.92
2023-04-09T11:38:18.843Z,15.60
2023-04-09T11:40:49.274Z,16.42
2023-04-09T11:43:21.147Z,15.80
2023-04-09T11:45:50.314Z,15.57
2023-04-09T11:48:19.309Z,14.70
2023-04-09T11:50:48.499Z,16.65
2023-04-09T11:53:20.723Z,16.30
2023-04-09T11:55:51.459Z,18.25
2023-04-09T11:58:24.453Z,15.45
2023-04-09T12:00:55.375Z,14.57
2023-04-09T12:03:33.647Z,15.68
2023-04-09T12:06:03.799Z,15.93
2023-04-09T12:08:34.622Z,15.13
2023-04-09T12:11:10.485Z,14.65
2023-04-09T12:13:43.213Z,15.95
2023-04-09T12:16:12.137Z,15.45
2023-04-09T12:18:41.184Z,14.38
2023-04-09T12:21:09.435Z,14.75
2023-04-09T12:23:38.809Z,13.20
2023-04-09T12:26:07.129Z,12.90
2023-04-09T12:28:35.492Z,12.73
2023-04-09T12:31:05.011Z,12.93
2023-04-09T12:33:34.045Z,12.70
2023-04-09T12:36:02.558Z,12.75
2023-04-09T12:38:30.765Z,13.38
2023-04-09T12:40:58.971Z,13.32
2023-04-09T12:43:27.695Z,13.80
2023-04-09T12:45:56.082Z,13.48
2023-04-09T12:48:27.004Z,13.60
2023-04-09T12:50:55.805Z,13.95
2023-04-09T12:53:24.368Z,13.50
2023-04-09T12:55:52.799Z,13.73
2023-04-09T12:58:21.136Z,13.48
2023-04-09T13:00:53.689Z,13.15
2023-04-09T13:03:22.119Z,13.25
2023-04-09T13:05:52.078Z,12.60
2023-04-09T13:08:20.341Z,12.85
2023-04-09T13:10:48.812Z,13.73
2023-04-09T13:13:19.647Z,13.48
2023-04-09T13:15:48.013Z,12.88
2023-04-09T13:18:16.418Z,13.23
2023-04-09T13:20:44.588Z,13.43
2023-04-09T13:23:14.343Z,13.35
2023-04-09T13:25:42.494Z,14.40
2023-04-09T13:28:13.491Z,14.15
2023-04-09T13:30:41.876Z,14.00
2023-04-09T13:33:10.172Z,13.82
2023-04-09T13:35:38.981Z,13.63
2023-04-09T13:38:07.286Z,13.63
2023-04-09T13:40:37.082Z,12.20
2023-04-09T13:43:05.785Z,13.30
2023-04-09T13:45:39.396Z,13.00
2023-04-09T13:48:08.255Z,11.82
2023-04-09T13:50:37.041Z,12.90
2023-04-09T13:53:05.781Z,11.90
2023-04-09T13:55:34.124Z,12.07
2023-04-09T13:58:06.655Z,12.07
2023-04-09T14:00:35.001Z,12.10
2023-04-09T14:03:03.631Z,11.98
2023-04-09T14:05:32.804Z,12.02
2023-04-09T14:08:01.406Z,12.40
2023-04-09T14:10:30.701Z,12.10
2023-04-09T14:12:58.979Z,11.75
2023-04-09T14:15:28.692Z,11.93
2023-04-09T14:17:57.433Z,12.05
2023-04-09T14:20:25.701Z,11.07
2023-04-09T14:22:53.934Z,11.60
2023-04-09T14:25:22.285Z,11.45
2023-04-09T14:27:50.981Z,11.07
2023-04-09T14:30:19.865Z,12.02
2023-04-09T14:32:49.740Z,12.60
2023-04-09T14:35:18.040Z,11.68
2023-04-09T14:37:47.334Z,11.70
2023-04-09T14:40:16.124Z,12.15
2023-04-09T14:42:44.265Z,11.80
2023-04-09T14:45:13.255Z,10.98
2023-04-09T14:47:44.630Z,11.45
2023-04-09T14:50:14.703Z,12.00
2023-04-09T14:52:43.025Z,11.60
2023-04-09T14:55:12.541Z,11.93
2023-04-09T14:57:42.105Z,11.00
2023-04-09T15:00:12.171Z,11.90
2023-04-09T15:02:41.554Z,11.07
2023-04-09T15:05:11.609Z,10.90
2023-04-09T15:07:41.684Z,10.45
2023-04-09T15:10:11.634Z,10.50
2023-04-09T15:12:39.884Z,10.90
2023-04-09T15:15:09.458Z,10.60
2023-04-09T15:17:37.989Z,11.32
2023-04-09T15:20:07.296Z,11.05
2023-04-09T15:22:35.995Z,10.65
2023-04-09T15:25:06.476Z,11.57
2023-04-09T15:27:34.764Z,11.48
2023-04-09T15:30:03.065Z,12.27
2023-04-09T15:32:32.472Z,10.35
2023-04-09T15:35:01.847Z,11.50
2023-04-09T15:37:30.034Z,11.82
2023-04-09T15:39:58.677Z,10.45
2023-04-09T15:42:28.886Z,10.20
2023-04-09T15:44:57.081Z,10.10
2023-04-09T15:47:25.445Z,10.70
2023-04-09T15:49:55.181Z,10.40
2023-04-09T15:52:23.711Z,10.77
2023-04-09T15:54:52.240Z,10.05
2023-04-09T15:57:21.093Z,10.73
2023-04-09T15:59:50.773Z,10.25
2023-04-09T16:02:24.110Z,9.95
2023-04-09T16:04:54.725Z,10.80
2023-04-09T16:07:23.137Z,10.32
2023-04-09T16:09:51.242Z,10.93
2023-04-09T16:12:20.011Z,10.38
2023-04-09T16:14:48.276Z,10.40
2023-04-09T16:17:18.108Z,10.80
2023-04-09T16:19:46.696Z,10.85
2023-04-09T16:22:15.054Z,10.23
2023-04-09T16:24:43.831Z,9.75
2023-04-09T16:27:13.665Z,8.90
2023-04-09T16:29:42.387Z,10.50
2023-04-09T16:32:10.808Z,9.23
2023-04-09T16:34:40.871Z,9.55
2023-04-09T16:37:09.044Z,9.77
2023-04-09T16:39:37.856Z,9.88
2023-04-09T16:42:07.101Z,10.57
2023-04-09T16:45:25.162Z,9.43
2023-04-09T16:47:56.203Z,10.20
2023-04-09T16:50:26.246Z,11.35
2023-04-09T16:52:54.709Z,11.02
2023-04-09T16:55:26.325Z,11.10
2023-04-09T16:57:56.033Z,9.88
2023-04-09T17:00:24.714Z,10.80
2023-04-09T17:02:53.027Z,11.23
2023-04-09T17:05:22.536Z,12.27
2023-04-09T17:07:53.638Z,11.13
2023-04-09T17:10:23.321Z,11.55
2023-04-09T17:12:51.599Z,11.35
2023-04-09T17:15:20.659Z,10.88
2023-04-09T17:17:51.282Z,12.63
2023-04-09T17:20:24.274Z,12.00
2023-04-09T17:22:54.160Z,11.25
2023-04-09T17:25:22.454Z,11.95
2023-04-09T17:27:54.585Z,12.75
2023-04-09T17:30:22.989Z,12.48
2023-04-09T17:32:51.506Z,20.20
2023-04-09T17:35:20.254Z,17.33
2023-04-09T17:37:48.518Z,16.30
2023-04-09T17:40:20.106Z,16.15
2023-04-09T17:42:49.155Z,13.70
2023-04-09T17:45:17.728Z,12.20
2023-04-09T17:47:46.079Z,10.77
2023-04-09T17:50:14.800Z,11.60
2023-04-09T17:52:43.034Z,12.00
2023-04-09T17:55:13.171Z,11.20
2023-04-09T17:57:42.985Z,12.45
2023-04-09T18:00:12.409Z,11.63
2023-04-09T18:02:40.969Z,12.00
2023-04-09T18:05:10.864Z,12.95
2023-04-09T18:07:39.428Z,13.13
2023-04-09T18:10:08.488Z,13.45
2023-04-09T18:12:36.689Z,12.82
2023-04-09T18:15:08.011Z,13.20
2023-04-09T18:17:36.338Z,11.90
2023-04-09T18:20:06.451Z,12.18
2023-04-09T18:22:35.183Z,13.23
2023-04-09T18:25:04.201Z,11.95
2023-04-09T18:27:32.451Z,13.75
2023-04-09T18:30:00.839Z,12.95
2023-04-09T18:32:31.134Z,12.40
2023-04-09T18:35:01.023Z,12.38
2023-04-09T18:37:29.525Z,12.57
2023-04-09T18:39:59.593Z,13.85
2023-04-09T18:42:29.086Z,13.55
2023-04-09T18:44:58.001Z,13.00
2023-04-09T18:47:30.679Z,13.18
2023-04-09T18:49:59.075Z,12.30
2023-04-09T18:52:27.637Z,12.57
2023-04-09T18:54:55.915Z,12.40
2023-04-09T18:57:24.273Z,13.70
2023-04-09T18:59:52.989Z,12.65
2023-04-09T19:02:21.601Z,13.30
2023-04-09T19:04:51.371Z,13.30
2023-04-09T19:07:20.871Z,13.40
2023-04-09T19:09:49.186Z,12.85
2023-04-09T19:12:17.483Z,12.50
2023-04-09T19:14:45.698Z,14.43
2023-04-09T19:17:14.075Z,15.32
2023-04-09T19:19:42.913Z,16.33
2023-04-09T19:22:12.786Z,17.60
2023-04-09T19:24:44.134Z,16.83
2023-04-09T19:27:13.274Z,18.27
2023-04-09T19:29:41.547Z,18.02
2023-04-09T19:32:12.986Z,17.25
2023-04-09T19:34:41.324Z,16.45
2023-04-09T19:37:10.589Z,17.17
2023-04-09T19:39:41.681Z,17.42
2023-04-09T19:42:10.070Z,18.23
2023-04-09T19:44:38.913Z,18.88
2023-04-09T19:47:07.642Z,20.52
2023-04-09T19:49:35.874Z,24.15
2023-04-09T19:52:06.228Z,24.30
2023-04-09T19:54:34.999Z,25.58
2023-04-09T19:57:05.091Z,24.88
2023-04-09T19:59:36.395Z,24.45
2023-04-09T20:02:04.733Z,24.70
2023-04-09T20:04:32.976Z,23.17
2023-04-09T20:07:01.394Z,23.60
2023-04-09T20:09:29.789Z,23.25
2023-04-09T20:11:58.427Z,24.25
2023-04-09T20:14:27.975Z,24.35
2023-04-09T20:16:56.810Z,24.10
2023-04-09T20:19:24.960Z,25.50
2023-04-09T20:21:54.902Z,30.67
2023-04-09T20:24:26.222Z,26.95
2023-04-09T20:26:54.691Z,25.73
2023-04-09T20:29:22.982Z,28.77
2023-04-09T20:31:52.873Z,29.20
2023-04-09T20:34:26.368Z,29.52
2023-04-09T20:36:54.808Z,28.65
2023-04-09T20:39:24.974Z,24.50
2023-04-09T20:41:53.381Z,24.10
2023-04-09T20:44:21.582Z,21.90
2023-04-09T20:46:54.039Z,20.00
2023-04-09T20:49:22.636Z,20.38
2023-04-09T20:51:51.900Z,18.60
2023-04-09T20:54:22.447Z,18.00
2023-04-09T20:56:51.283Z,17.35
2023-04-09T20:59:20.290Z,15.85
2023-04-09T21:01:48.897Z,15.63
2023-04-09T21:04:19.405Z,16.90
2023-04-09T21:06:47.779Z,16.35
2023-04-09T21:09:15.928Z,16.77
2023-04-09T21:11:44.414Z,16.88
2023-04-09T21:14:14.651Z,16.15
2023-04-09T21:16:42.916Z,15.40
2023-04-09T21:19:11.141Z,15.40
2023-04-09T21:21:40.957Z,17.17
2023-04-09T21:24:09.584Z,16.67
2023-04-09T21:26:49.873Z,16.30
2023-04-09T21:29:20.333Z,15.18
2023-04-09T21:31:49.198Z,15.00
2023-04-09T21:34:17.743Z,14.75
2023-04-09T21:36:47.585Z,15.88
2023-04-09T21:39:15.993Z,16.00
2023-04-09T21:41:44.213Z,14.82
2023-04-09T21:44:13.442Z,15.13
2023-04-09T21:46:43.440Z,15.57
2023-04-09T21:49:11.831Z,14.95
2023-04-09T21:51:40.216Z,14.50
2023-04-09T21:54:10.987Z,15.57
2023-04-09T21:56:39.862Z,14.68
2023-04-09T21:59:08.171Z,14.52
2023-04-09T22:01:36.547Z,14.68
2023-04-09T22:04:05.099Z,14.75
2023-04-09T22:06:33.633Z,14.60
2023-04-09T22:09:02.423Z,14.88
2023-04-09T22:11:34.162Z,14.93
2023-04-09T22:14:02.340Z,15.48
2023-04-09T22:16:31.011Z,14.20
2023-04-09T22:18:59.382Z,15.75
2023-04-09T22:21:27.751Z,15.25
2023-04-09T22:23:56.101Z,14.45
2023-04-09T22:26:24.439Z,15.35
2023-04-09T22:28:54.258Z,14.80
2023-04-09T22:31:22.915Z,14.40
2023-04-09T22:33:51.276Z,14.05
2023-04-09T22:36:19.852Z,15.18
2023-04-09T22:38:48.785Z,14.77
2023-04-09T22:41:17.708Z,13.55
2023-04-09T22:43:46.280Z,14.10
2023-04-09T22:46:16.438Z,13.52
2023-04-09T22:48:46.524Z,13.57
2023-04-09T22:51:18.379Z,15.25
2023-04-09T22:53:48.028Z,14.98
2023-04-09T22:56:16.451Z,14.55
2023-04-09T22:58:44.784Z,15.40
2023-04-09T23:01:13.328Z,15.40
2023-04-09T23:03:42.988Z,15.55
2023-04-09T23:06:11.466Z,15.57
2023-04-09T23:08:40.860Z,15.35
2023-04-09T23:11:10.375Z,16.42
2023-04-09T23:13:39.585Z,16.75
2023-04-09T23:16:09.106Z,16.17
2023-04-09T23:18:38.000Z,16.30
2023-04-09T23:21:11.651Z,16.95
2023-04-09T23:23:42.918Z,16.13
2023-04-09T23:26:11.818Z,18.90
2023-04-09T23:28:40.122Z,16.77
2023-04-09T23:31:08.496Z,16.60
2023-04-09T23:33:36.951Z,16.77
2023-04-09T23:36:05.988Z,16.50
2023-04-09T23:38:35.608Z,16.88
2023-04-09T23:41:04.127Z,16.20
2023-04-09T23:43:32.526Z,17.33
2023-04-09T23:46:00.803Z,17.95
2023-04-09T23:48:28.984Z,18.30
2023-04-09T23:50:57.916Z,17.67
2023-04-09T23:53:27.096Z,17.63
2023-04-09T23:55:56.989Z,17.33
2023-04-09T23:58:25.680Z,17.90
